Historyczne dane pomiarowe

Dodano dane terminowe – wersja testowa.

Dane z okresu 1951-2019

Wersja bazy: 1.34 [2019-03-16, lista zmian], aktualizacja planowana na 2019-04-15

Dane meteo z obszaru Polski uzyskane na podstawie danych udostępnionych przez Instytut Meteorologii i Gospodarki Wodnej – Państwowy Instytut Badawczy.

 

Wybierz Datę:    

       

TemperaturaWilgotnośćZachmurzenieWiatrCiśnienieWidzialnośćZjawiska
 Data    tng td wb rh cc ccl cl cm ch dir g1 g2 mslp ppp      
1999-07-01 00:00:00 12.7--- 11.5 12.092wxwxwxwx1wx--1018.2 995.9 0.0---wx
1999-07-01 01:00:00 12.5--- 11.4 11.993wxwxwxwx1wx--1018.0 995.7----wx
1999-07-01 02:00:00 12.3--- 11.2 11.793wxwxwxwx0wx--1017.9 995.5----wx
1999-07-01 03:00:00 11.4--- 10.3 10.893wxwxwxwx0wx--1018.2 995.8----wx
1999-07-01 04:00:00 14.0--- 13.3 13.696wxwxwxwx0wx--1017.9 995.7----wx
1999-07-01 05:00:00 19.2--- 14.2 16.173wxwxwxwx0wx--1017.6 995.8----wx
1999-07-01 06:00:00 21.4--- 15.4 17.669wxwxwx1wx--1017.5 995.8 0.0---wx
1999-07-01 07:00:00 22.3--- 13.4 16.857wxwxwx1wx--1017.4 995.8----wx
1999-07-01 08:00:00 22.5--- 13.0 16.755wxwxwxwx1wx--1017.4 995.8----wx
1999-07-01 09:00:00 22.5--- 13.0 16.755wxwxwxwx2wx--1017.6 996.0----wx
1999-07-01 10:00:00 24.0--- 14.7 18.156wxwxwxwx0wx--1017.3 995.8----wx
1999-07-01 11:00:00 23.1--- 14.3 17.658wxwxwxwx2wx--1017.1 995.6----wx
1999-07-01 12:00:00 24.5--- 12.4 17.147wxwxwxwx0wx--1016.5 995.1 0.0---wx
1999-07-01 13:00:00 24.5--- 13.2 17.549wxwxwxwx1wx--1015.9 994.5----wx
1999-07-01 14:00:00 24.5--- 13.2 17.549wxwxwxwx1wx--1015.6 994.2----wx
1999-07-01 15:00:00 24.3--- 13.3 17.550wxwxwxwx2wx--1015.1 993.7----wx
1999-07-01 16:00:00 24.3--- 12.9 17.349wxwxwxwx2wx--1014.9 993.5----wx
1999-07-01 17:00:00 23.4--- 14.5 17.857wxwxwxwx2wx--1015.0 993.5----wx
1999-07-01 18:00:00 22.7--- 13.6 17.157wxwxwx1wx--1015.2 993.7 0.0---wx
1999-07-01 19:00:00 20.7--- 13.9 16.565wxwxwx1wx--1015.5 993.8----wx
1999-07-01 20:00:00 17.7--- 13.7 15.378wxwxwx0wx--1015.7 993.8----wx
1999-07-01 21:00:00 15.1--- 13.3 14.089wxwxwx1wx--1015.7 993.6----wx
1999-07-01 22:00:00 14.9--- 12.7 13.687wxwxwx1wx--1015.6 993.5----wx
1999-07-01 23:00:00 14.1--- 12.7 13.392wxwxwx1wx--1015.1 992.9----wx

 

Źródłem pochodzenia danych jest Instytut Meteorologii i Gospodarki Wodnej – Państwowy Instytut Badawczy. Dane Instytutu Meteorologii i Gospodarki Wodnej – Państwowego Instytutu Badawczego zostały przetworzone.

Dane źródłowe można odnaleźć na stronie https://dane.imgw.pl